Airfield :







YOU CAN JOIN US ON...

 
LOGIN :

Register | Disclaimer

   EN    FR    IT 

 









Legend :    VFR   Marginal VFR   IFR   Intensive IFR   Very Intensive IFR
Visi :
Ceiling :
>= 8 km
>= 3000ft
5 to 8 km
1000 to 3000 ft
1500m to 5 km
500 to 1000 ft
800 to 1500m
200 to 500 ft
< 800m
< 200 ft
Symbols :   Thunderstorms  Fog  Heavy snow  Heavy precipitations  Wind > 20 kt






- Airport Elevation : 787 ft
- IATA code : RUT


KRUT - Rutland - Southern Vermont Regional

CURRENT METAR :
  • 180556Z AUTO 00000KT 10SM CLR M09/M13 A3043 RMK AO2 SLP311 T10941128 11044 21100 53005 FZRANO $

EXPIRED METARs :
  • 180456Z AUTO 12008KT 10SM CLR M09/M13 A3041 RMK AO2 SLP306 T10941128 400171094 FZRANO $
  • 180356Z AUTO 13008KT 10SM CLR M09/M12 A3040 RMK AO2 SLP304 T10891122 FZRANO $

TAF KRUT
Valid from the 18 at 06:00 until the 19 at 06:00 UTC


180533Z 1806/1906 12007KT P6SM SCT180
FM181300 13019G28KT P6SM VCSH OVC050
FM181600 13022G33KT 2SM -SN BR OVC028 WS020/16045KT
FM182100 14016G24KT 4SM -RA BR OVC015 WS020/18050KT
FM190100 20009KT 3SM -DZ OVC012



MET'MAP, your aeronautical weather chart ! - Copyright ORBIFLY December 2007 - Disclaimer

ORBIFLY MET'MAP TEAM :

Programming & Development : Alexandra Zaïnal
Concept & original design : Baudouin d'Aumeries
Assistance for programming : Marc-Olivier Méhu
Technical & hardware support : Manuel Goepfert

Contact : metmap@orbifly.com




SOURCES & CREDITS :

   NOAA